sensor_id;sensor_type;location;lat;lon;timestamp;P1;durP1;ratioP1;P2;durP2;ratioP2
15929;SDS011;8064;51.142;4.780;2023-03-20T00:00:16;11.20;;;7.10;;
15929;SDS011;8064;51.142;4.780;2023-03-20T00:03:01;9.77;;;7.00;;
15929;SDS011;8064;51.142;4.780;2023-03-20T00:05:27;7.03;;;6.23;;
15929;SDS011;8064;51.142;4.780;2023-03-20T00:07:55;9.17;;;6.23;;
15929;SDS011;8064;51.142;4.780;2023-03-20T00:10:24;8.53;;;6.87;;
15929;SDS011;8064;51.142;4.780;2023-03-20T00:12:54;9.90;;;7.30;;
15929;SDS011;8064;51.142;4.780;2023-03-20T00:15:23;7.90;;;6.73;;
15929;SDS011;8064;51.142;4.780;2023-03-20T00:17:50;9.30;;;6.40;;
15929;SDS011;8064;51.142;4.780;2023-03-20T00:20:16;8.97;;;6.43;;
15929;SDS011;8064;51.142;4.780;2023-03-20T00:22:42;9.23;;;6.57;;
15929;SDS011;8064;51.142;4.780;2023-03-20T00:25:12;8.50;;;6.37;;
15929;SDS011;8064;51.142;4.780;2023-03-20T00:27:40;11.80;;;7.13;;
15929;SDS011;8064;51.142;4.780;2023-03-20T00:30:13;9.13;;;6.87;;
15929;SDS011;8064;51.142;4.780;2023-03-20T00:32:53;8.60;;;6.20;;
15929;SDS011;8064;51.142;4.780;2023-03-20T00:35:22;9.47;;;6.90;;
15929;SDS011;8064;51.142;4.780;2023-03-20T00:37:50;7.77;;;6.60;;
15929;SDS011;8064;51.142;4.780;2023-03-20T00:40:16;11.37;;;7.27;;
15929;SDS011;8064;51.142;4.780;2023-03-20T00:42:43;9.73;;;7.53;;
15929;SDS011;8064;51.142;4.780;2023-03-20T00:45:27;12.40;;;7.27;;
15929;SDS011;8064;51.142;4.780;2023-03-20T00:47:54;11.17;;;7.97;;
15929;SDS011;8064;51.142;4.780;2023-03-20T00:50:23;9.17;;;7.23;;
15929;SDS011;8064;51.142;4.780;2023-03-20T00:52:53;10.80;;;8.07;;
15929;SDS011;8064;51.142;4.780;2023-03-20T00:55:21;13.00;;;8.00;;
15929;SDS011;8064;51.142;4.780;2023-03-20T00:57:51;12.83;;;8.13;;
15929;SDS011;8064;51.142;4.780;2023-03-20T01:00:33;11.20;;;8.37;;
15929;SDS011;8064;51.142;4.780;2023-03-20T01:03:09;10.40;;;8.43;;
15929;SDS011;8064;51.142;4.780;2023-03-20T01:05:37;11.03;;;7.23;;
15929;SDS011;8064;51.142;4.780;2023-03-20T01:08:08;10.27;;;8.00;;
15929;SDS011;8064;51.142;4.780;2023-03-20T01:10:53;9.20;;;7.70;;
15929;SDS011;8064;51.142;4.780;2023-03-20T01:13:23;11.87;;;7.83;;
15929;SDS011;8064;51.142;4.780;2023-03-20T01:15:51;11.43;;;7.90;;
15929;SDS011;8064;51.142;4.780;2023-03-20T01:18:19;12.50;;;8.50;;
15929;SDS011;8064;51.142;4.780;2023-03-20T01:20:46;11.90;;;7.60;;
15929;SDS011;8064;51.142;4.780;2023-03-20T01:23:13;14.27;;;8.07;;
15929;SDS011;8064;51.142;4.780;2023-03-20T01:25:39;11.33;;;8.17;;
15929;SDS011;8064;51.142;4.780;2023-03-20T01:28:10;14.23;;;7.83;;
15929;SDS011;8064;51.142;4.780;2023-03-20T01:30:56;12.13;;;8.77;;
15929;SDS011;8064;51.142;4.780;2023-03-20T01:33:24;10.90;;;8.03;;
15929;SDS011;8064;51.142;4.780;2023-03-20T01:35:50;11.17;;;7.70;;
15929;SDS011;8064;51.142;4.780;2023-03-20T01:38:18;10.80;;;8.03;;
15929;SDS011;8064;51.142;4.780;2023-03-20T01:43:31;12.17;;;8.43;;
15929;SDS011;8064;51.142;4.780;2023-03-20T01:51:45;14.47;;;8.87;;
15929;SDS011;8064;51.142;4.780;2023-03-20T01:54:14;12.83;;;8.37;;
15929;SDS011;8064;51.142;4.780;2023-03-20T01:56:45;13.10;;;9.13;;
15929;SDS011;8064;51.142;4.780;2023-03-20T01:59:16;11.00;;;7.87;;
15929;SDS011;8064;51.142;4.780;2023-03-20T02:01:46;11.60;;;8.27;;
15929;SDS011;8064;51.142;4.780;2023-03-20T02:04:12;12.00;;;8.77;;
15929;SDS011;8064;51.142;4.780;2023-03-20T02:06:39;10.93;;;8.17;;
15929;SDS011;8064;51.142;4.780;2023-03-20T02:09:09;11.20;;;8.17;;
15929;SDS011;8064;51.142;4.780;2023-03-20T02:11:36;11.50;;;8.00;;
15929;SDS011;8064;51.142;4.780;2023-03-20T02:14:04;12.13;;;7.93;;
15929;SDS011;8064;51.142;4.780;2023-03-20T02:16:32;10.77;;;7.83;;
15929;SDS011;8064;51.142;4.780;2023-03-20T02:18:58;13.30;;;8.50;;
15929;SDS011;8064;51.142;4.780;2023-03-20T02:24:06;9.17;;;7.23;;
15929;SDS011;8064;51.142;4.780;2023-03-20T02:29:46;9.07;;;7.33;;
15929;SDS011;8064;51.142;4.780;2023-03-20T02:32:41;8.17;;;6.27;;
15929;SDS011;8064;51.142;4.780;2023-03-20T02:43:49;11.93;;;7.90;;
15929;SDS011;8064;51.142;4.780;2023-03-20T02:46:36;11.30;;;7.20;;
15929;SDS011;8064;51.142;4.780;2023-03-20T02:55:16;9.70;;;6.77;;
15929;SDS011;8064;51.142;4.780;2023-03-20T03:00:34;10.77;;;7.13;;
15929;SDS011;8064;51.142;4.780;2023-03-20T03:05:53;12.47;;;7.30;;
15929;SDS011;8064;51.142;4.780;2023-03-20T03:08:24;9.77;;;7.33;;
15929;SDS011;8064;51.142;4.780;2023-03-20T03:10:57;11.20;;;7.30;;
15929;SDS011;8064;51.142;4.780;2023-03-20T03:13:28;10.57;;;6.97;;
15929;SDS011;8064;51.142;4.780;2023-03-20T03:15:58;11.20;;;7.43;;
15929;SDS011;8064;51.142;4.780;2023-03-20T03:18:29;13.00;;;7.17;;
15929;SDS011;8064;51.142;4.780;2023-03-20T03:20:59;11.77;;;7.23;;
15929;SDS011;8064;51.142;4.780;2023-03-20T03:23:27;11.50;;;7.20;;
15929;SDS011;8064;51.142;4.780;2023-03-20T03:25:57;10.23;;;7.70;;
15929;SDS011;8064;51.142;4.780;2023-03-20T03:31:14;10.17;;;6.70;;
15929;SDS011;8064;51.142;4.780;2023-03-20T03:33:44;9.03;;;6.67;;
15929;SDS011;8064;51.142;4.780;2023-03-20T03:38:59;9.73;;;6.80;;
15929;SDS011;8064;51.142;4.780;2023-03-20T03:41:39;9.00;;;6.57;;
15929;SDS011;8064;51.142;4.780;2023-03-20T03:50:29;9.13;;;7.10;;
15929;SDS011;8064;51.142;4.780;2023-03-20T03:53:01;12.43;;;6.77;;
15929;SDS011;8064;51.142;4.780;2023-03-20T03:55:34;9.50;;;6.63;;
15929;SDS011;8064;51.142;4.780;2023-03-20T03:58:05;10.63;;;6.80;;
15929;SDS011;8064;51.142;4.780;2023-03-20T04:00:48;11.60;;;6.13;;
15929;SDS011;8064;51.142;4.780;2023-03-20T04:03:16;8.43;;;6.43;;
15929;SDS011;8064;51.142;4.780;2023-03-20T04:05:45;12.37;;;6.73;;
15929;SDS011;8064;51.142;4.780;2023-03-20T04:08:12;12.97;;;6.93;;
15929;SDS011;8064;51.142;4.780;2023-03-20T04:10:40;12.97;;;7.97;;
15929;SDS011;8064;51.142;4.780;2023-03-20T04:13:06;8.77;;;6.93;;
15929;SDS011;8064;51.142;4.780;2023-03-20T04:15:31;11.90;;;6.53;;
15929;SDS011;8064;51.142;4.780;2023-03-20T04:17:57;12.03;;;7.13;;
15929;SDS011;8064;51.142;4.780;2023-03-20T04:20:23;10.13;;;7.27;;
15929;SDS011;8064;51.142;4.780;2023-03-20T04:22:49;13.17;;;7.20;;
15929;SDS011;8064;51.142;4.780;2023-03-20T04:25:17;10.63;;;6.97;;
15929;SDS011;8064;51.142;4.780;2023-03-20T04:27:45;10.70;;;6.60;;
15929;SDS011;8064;51.142;4.780;2023-03-20T04:30:11;10.90;;;6.70;;
15929;SDS011;8064;51.142;4.780;2023-03-20T04:32:37;13.60;;;6.97;;
15929;SDS011;8064;51.142;4.780;2023-03-20T04:35:03;13.43;;;7.30;;
15929;SDS011;8064;51.142;4.780;2023-03-20T04:37:30;11.47;;;7.20;;
15929;SDS011;8064;51.142;4.780;2023-03-20T04:39:56;13.80;;;7.00;;
15929;SDS011;8064;51.142;4.780;2023-03-20T04:42:22;9.67;;;6.90;;
15929;SDS011;8064;51.142;4.780;2023-03-20T04:44:48;10.47;;;6.80;;
15929;SDS011;8064;51.142;4.780;2023-03-20T04:47:14;12.50;;;7.00;;
15929;SDS011;8064;51.142;4.780;2023-03-20T04:49:40;11.70;;;6.80;;
15929;SDS011;8064;51.142;4.780;2023-03-20T04:52:06;11.90;;;7.90;;
15929;SDS011;8064;51.142;4.780;2023-03-20T04:54:32;12.30;;;7.57;;
15929;SDS011;8064;51.142;4.780;2023-03-20T04:56:58;13.37;;;7.77;;
15929;SDS011;8064;51.142;4.780;2023-03-20T04:59:24;13.10;;;7.27;;
15929;SDS011;8064;51.142;4.780;2023-03-20T05:01:49;12.90;;;7.53;;
15929;SDS011;8064;51.142;4.780;2023-03-20T05:04:15;14.90;;;7.70;;
15929;SDS011;8064;51.142;4.780;2023-03-20T05:06:42;12.27;;;8.07;;
15929;SDS011;8064;51.142;4.780;2023-03-20T05:09:08;14.13;;;7.97;;
15929;SDS011;8064;51.142;4.780;2023-03-20T05:11:34;13.70;;;8.50;;
15929;SDS011;8064;51.142;4.780;2023-03-20T05:14:00;13.20;;;8.33;;
15929;SDS011;8064;51.142;4.780;2023-03-20T05:16:26;16.13;;;7.83;;
15929;SDS011;8064;51.142;4.780;2023-03-20T05:18:52;14.17;;;8.43;;
15929;SDS011;8064;51.142;4.780;2023-03-20T05:21:18;14.10;;;8.67;;
15929;SDS011;8064;51.142;4.780;2023-03-20T05:23:44;17.40;;;8.33;;
15929;SDS011;8064;51.142;4.780;2023-03-20T05:26:09;15.27;;;8.27;;
15929;SDS011;8064;51.142;4.780;2023-03-20T05:28:35;13.50;;;7.80;;
15929;SDS011;8064;51.142;4.780;2023-03-20T05:31:01;13.67;;;8.83;;
15929;SDS011;8064;51.142;4.780;2023-03-20T05:33:27;16.53;;;8.60;;
15929;SDS011;8064;51.142;4.780;2023-03-20T05:35:53;17.10;;;9.00;;
15929;SDS011;8064;51.142;4.780;2023-03-20T05:38:18;16.20;;;9.20;;
15929;SDS011;8064;51.142;4.780;2023-03-20T05:40:47;17.37;;;9.10;;
15929;SDS011;8064;51.142;4.780;2023-03-20T05:43:13;16.80;;;8.60;;
15929;SDS011;8064;51.142;4.780;2023-03-20T05:45:40;17.50;;;9.50;;
15929;SDS011;8064;51.142;4.780;2023-03-20T05:48:07;16.17;;;8.60;;
15929;SDS011;8064;51.142;4.780;2023-03-20T05:50:32;18.57;;;9.23;;
15929;SDS011;8064;51.142;4.780;2023-03-20T05:52:58;15.57;;;8.73;;
15929;SDS011;8064;51.142;4.780;2023-03-20T05:55:24;15.83;;;8.83;;
15929;SDS011;8064;51.142;4.780;2023-03-20T05:57:51;17.57;;;9.37;;
15929;SDS011;8064;51.142;4.780;2023-03-20T06:00:16;19.37;;;9.00;;
15929;SDS011;8064;51.142;4.780;2023-03-20T06:02:43;14.77;;;8.00;;
15929;SDS011;8064;51.142;4.780;2023-03-20T06:05:08;16.80;;;7.67;;
15929;SDS011;8064;51.142;4.780;2023-03-20T06:07:34;17.27;;;8.87;;
15929;SDS011;8064;51.142;4.780;2023-03-20T06:10:00;16.67;;;8.57;;
15929;SDS011;8064;51.142;4.780;2023-03-20T06:12:25;13.43;;;8.17;;
15929;SDS011;8064;51.142;4.780;2023-03-20T06:14:51;17.80;;;8.93;;
15929;SDS011;8064;51.142;4.780;2023-03-20T06:17:17;16.67;;;8.70;;
15929;SDS011;8064;51.142;4.780;2023-03-20T06:19:43;17.63;;;8.63;;
15929;SDS011;8064;51.142;4.780;2023-03-20T06:22:09;19.27;;;9.43;;
15929;SDS011;8064;51.142;4.780;2023-03-20T06:24:35;15.67;;;8.43;;
15929;SDS011;8064;51.142;4.780;2023-03-20T06:27:02;17.17;;;8.13;;
15929;SDS011;8064;51.142;4.780;2023-03-20T06:29:28;17.83;;;7.73;;
15929;SDS011;8064;51.142;4.780;2023-03-20T06:31:53;14.97;;;7.60;;
15929;SDS011;8064;51.142;4.780;2023-03-20T06:34:19;14.17;;;7.53;;
15929;SDS011;8064;51.142;4.780;2023-03-20T06:36:45;13.63;;;7.60;;
15929;SDS011;8064;51.142;4.780;2023-03-20T06:39:12;16.10;;;7.27;;
15929;SDS011;8064;51.142;4.780;2023-03-20T06:41:39;14.40;;;6.93;;
15929;SDS011;8064;51.142;4.780;2023-03-20T06:44:05;13.67;;;7.03;;
15929;SDS011;8064;51.142;4.780;2023-03-20T06:46:31;19.10;;;10.60;;
15929;SDS011;8064;51.142;4.780;2023-03-20T06:48:57;18.57;;;9.40;;
15929;SDS011;8064;51.142;4.780;2023-03-20T06:51:22;32.50;;;16.17;;
15929;SDS011;8064;51.142;4.780;2023-03-20T06:53:48;16.53;;;8.60;;
15929;SDS011;8064;51.142;4.780;2023-03-20T06:56:14;14.13;;;7.27;;
15929;SDS011;8064;51.142;4.780;2023-03-20T06:58:40;14.03;;;6.37;;
15929;SDS011;8064;51.142;4.780;2023-03-20T07:01:08;12.87;;;6.83;;
15929;SDS011;8064;51.142;4.780;2023-03-20T07:03:35;12.37;;;6.53;;
15929;SDS011;8064;51.142;4.780;2023-03-20T07:06:01;13.47;;;9.40;;
15929;SDS011;8064;51.142;4.780;2023-03-20T07:08:27;12.27;;;6.80;;
15929;SDS011;8064;51.142;4.780;2023-03-20T07:10:53;13.00;;;6.03;;
15929;SDS011;8064;51.142;4.780;2023-03-20T07:13:19;10.43;;;6.27;;
15929;SDS011;8064;51.142;4.780;2023-03-20T07:15:45;11.07;;;6.07;;
15929;SDS011;8064;51.142;4.780;2023-03-20T07:18:10;12.97;;;6.50;;
15929;SDS011;8064;51.142;4.780;2023-03-20T07:20:36;15.77;;;6.77;;
15929;SDS011;8064;51.142;4.780;2023-03-20T07:23:02;11.83;;;5.70;;
15929;SDS011;8064;51.142;4.780;2023-03-20T07:25:27;11.10;;;5.90;;
15929;SDS011;8064;51.142;4.780;2023-03-20T07:27:53;11.87;;;5.37;;
15929;SDS011;8064;51.142;4.780;2023-03-20T07:30:19;11.83;;;5.80;;
15929;SDS011;8064;51.142;4.780;2023-03-20T07:32:45;12.33;;;5.40;;
15929;SDS011;8064;51.142;4.780;2023-03-20T07:35:12;11.77;;;5.67;;
15929;SDS011;8064;51.142;4.780;2023-03-20T07:37:38;9.70;;;5.13;;
15929;SDS011;8064;51.142;4.780;2023-03-20T07:40:04;17.07;;;6.27;;
15929;SDS011;8064;51.142;4.780;2023-03-20T07:42:30;12.47;;;5.00;;
15929;SDS011;8064;51.142;4.780;2023-03-20T07:44:56;14.97;;;6.60;;
15929;SDS011;8064;51.142;4.780;2023-03-20T07:47:22;13.33;;;4.73;;
15929;SDS011;8064;51.142;4.780;2023-03-20T07:49:48;10.60;;;4.80;;
15929;SDS011;8064;51.142;4.780;2023-03-20T07:52:13;13.63;;;4.70;;
15929;SDS011;8064;51.142;4.780;2023-03-20T07:54:41;13.10;;;4.97;;
15929;SDS011;8064;51.142;4.780;2023-03-20T07:57:07;16.83;;;4.97;;
15929;SDS011;8064;51.142;4.780;2023-03-20T07:59:32;13.20;;;4.83;;
15929;SDS011;8064;51.142;4.780;2023-03-20T08:01:58;13.10;;;4.70;;
15929;SDS011;8064;51.142;4.780;2023-03-20T08:04:24;10.10;;;4.03;;
15929;SDS011;8064;51.142;4.780;2023-03-20T08:06:50;16.70;;;4.50;;
15929;SDS011;8064;51.142;4.780;2023-03-20T08:09:16;9.10;;;3.60;;
15929;SDS011;8064;51.142;4.780;2023-03-20T08:11:41;16.63;;;3.90;;
15929;SDS011;8064;51.142;4.780;2023-03-20T08:14:07;12.80;;;3.67;;
15929;SDS011;8064;51.142;4.780;2023-03-20T08:16:33;17.03;;;4.73;;
15929;SDS011;8064;51.142;4.780;2023-03-20T08:18:59;12.40;;;3.87;;
15929;SDS011;8064;51.142;4.780;2023-03-20T08:21:26;11.70;;;3.43;;
15929;SDS011;8064;51.142;4.780;2023-03-20T08:23:53;8.70;;;3.57;;
15929;SDS011;8064;51.142;4.780;2023-03-20T08:26:19;10.93;;;3.37;;
15929;SDS011;8064;51.142;4.780;2023-03-20T08:28:45;9.90;;;3.27;;
15929;SDS011;8064;51.142;4.780;2023-03-20T08:31:11;11.53;;;3.83;;
15929;SDS011;8064;51.142;4.780;2023-03-20T08:33:37;10.87;;;3.00;;
15929;SDS011;8064;51.142;4.780;2023-03-20T08:36:03;10.43;;;2.70;;
15929;SDS011;8064;51.142;4.780;2023-03-20T08:38:29;12.17;;;3.70;;
15929;SDS011;8064;51.142;4.780;2023-03-20T08:40:55;11.37;;;3.00;;
15929;SDS011;8064;51.142;4.780;2023-03-20T08:43:20;9.80;;;2.90;;
15929;SDS011;8064;51.142;4.780;2023-03-20T08:45:46;13.50;;;3.17;;
15929;SDS011;8064;51.142;4.780;2023-03-20T08:48:12;10.43;;;3.63;;
15929;SDS011;8064;51.142;4.780;2023-03-20T08:50:38;13.83;;;3.50;;
15929;SDS011;8064;51.142;4.780;2023-03-20T08:53:04;9.20;;;2.97;;
15929;SDS011;8064;51.142;4.780;2023-03-20T08:55:30;13.67;;;4.93;;
15929;SDS011;8064;51.142;4.780;2023-03-20T08:57:56;12.30;;;3.13;;
15929;SDS011;8064;51.142;4.780;2023-03-20T09:00:23;11.73;;;3.60;;
15929;SDS011;8064;51.142;4.780;2023-03-20T09:02:49;11.87;;;3.30;;
15929;SDS011;8064;51.142;4.780;2023-03-20T09:05:16;12.17;;;2.90;;
15929;SDS011;8064;51.142;4.780;2023-03-20T09:07:42;11.57;;;3.33;;
15929;SDS011;8064;51.142;4.780;2023-03-20T09:10:08;11.40;;;3.57;;
15929;SDS011;8064;51.142;4.780;2023-03-20T09:12:35;12.00;;;3.43;;
15929;SDS011;8064;51.142;4.780;2023-03-20T09:15:01;10.27;;;2.70;;
15929;SDS011;8064;51.142;4.780;2023-03-20T09:17:28;8.97;;;3.17;;
15929;SDS011;8064;51.142;4.780;2023-03-20T09:19:55;12.17;;;3.77;;
15929;SDS011;8064;51.142;4.780;2023-03-20T09:22:22;11.47;;;3.43;;
15929;SDS011;8064;51.142;4.780;2023-03-20T09:24:48;11.07;;;3.40;;
15929;SDS011;8064;51.142;4.780;2023-03-20T09:27:13;12.67;;;3.67;;
15929;SDS011;8064;51.142;4.780;2023-03-20T09:29:40;12.93;;;4.20;;
15929;SDS011;8064;51.142;4.780;2023-03-20T09:32:08;14.33;;;3.80;;
15929;SDS011;8064;51.142;4.780;2023-03-20T09:34:36;12.10;;;4.17;;
15929;SDS011;8064;51.142;4.780;2023-03-20T09:37:02;9.53;;;3.47;;
15929;SDS011;8064;51.142;4.780;2023-03-20T09:39:28;12.23;;;3.27;;
15929;SDS011;8064;51.142;4.780;2023-03-20T09:41:54;11.73;;;3.77;;
15929;SDS011;8064;51.142;4.780;2023-03-20T09:44:37;9.37;;;3.60;;
15929;SDS011;8064;51.142;4.780;2023-03-20T09:50:27;10.57;;;4.73;;
15929;SDS011;8064;51.142;4.780;2023-03-20T09:53:02;10.10;;;3.50;;
15929;SDS011;8064;51.142;4.780;2023-03-20T09:55:42;8.20;;;3.20;;
15929;SDS011;8064;51.142;4.780;2023-03-20T09:58:11;7.77;;;3.00;;
15929;SDS011;8064;51.142;4.780;2023-03-20T10:00:39;11.47;;;3.53;;
15929;SDS011;8064;51.142;4.780;2023-03-20T10:03:14;15.10;;;3.70;;
15929;SDS011;8064;51.142;4.780;2023-03-20T10:05:44;10.60;;;3.77;;
15929;SDS011;8064;51.142;4.780;2023-03-20T10:08:15;13.80;;;3.97;;
15929;SDS011;8064;51.142;4.780;2023-03-20T10:13:34;16.60;;;3.53;;
15929;SDS011;8064;51.142;4.780;2023-03-20T10:19:08;15.13;;;3.70;;
15929;SDS011;8064;51.142;4.780;2023-03-20T10:27:57;13.70;;;4.27;;
15929;SDS011;8064;51.142;4.780;2023-03-20T10:33:17;11.63;;;3.67;;
15929;SDS011;8064;51.142;4.780;2023-03-20T10:36:06;10.77;;;3.70;;
15929;SDS011;8064;51.142;4.780;2023-03-20T10:41:16;7.93;;;3.67;;
15929;SDS011;8064;51.142;4.780;2023-03-20T10:43:46;12.17;;;3.93;;
15929;SDS011;8064;51.142;4.780;2023-03-20T10:46:17;10.07;;;3.77;;
15929;SDS011;8064;51.142;4.780;2023-03-20T10:54:30;9.23;;;3.33;;
15929;SDS011;8064;51.142;4.780;2023-03-20T10:57:00;12.33;;;4.20;;
15929;SDS011;8064;51.142;4.780;2023-03-20T10:59:31;14.57;;;3.90;;
15929;SDS011;8064;51.142;4.780;2023-03-20T11:02:08;10.23;;;3.30;;
15929;SDS011;8064;51.142;4.780;2023-03-20T11:04:35;14.00;;;3.37;;
15929;SDS011;8064;51.142;4.780;2023-03-20T11:10:09;10.43;;;3.50;;
15929;SDS011;8064;51.142;4.780;2023-03-20T11:15:04;9.40;;;3.60;;
15929;SDS011;8064;51.142;4.780;2023-03-20T11:17:49;10.57;;;3.80;;
15929;SDS011;8064;51.142;4.780;2023-03-20T11:20:16;11.43;;;3.43;;
15929;SDS011;8064;51.142;4.780;2023-03-20T11:22:42;10.57;;;3.27;;
15929;SDS011;8064;51.142;4.780;2023-03-20T11:25:19;11.33;;;3.47;;
15929;SDS011;8064;51.142;4.780;2023-03-20T11:27:49;14.33;;;3.93;;
15929;SDS011;8064;51.142;4.780;2023-03-20T11:30:15;8.60;;;3.70;;
15929;SDS011;8064;51.142;4.780;2023-03-20T11:35:29;9.70;;;3.40;;
15929;SDS011;8064;51.142;4.780;2023-03-20T11:38:19;10.07;;;3.93;;
15929;SDS011;8064;51.142;4.780;2023-03-20T11:40:45;8.80;;;3.40;;
15929;SDS011;8064;51.142;4.780;2023-03-20T11:43:14;10.50;;;3.60;;
15929;SDS011;8064;51.142;4.780;2023-03-20T11:45:45;8.73;;;3.33;;
15929;SDS011;8064;51.142;4.780;2023-03-20T11:48:18;10.80;;;3.53;;
15929;SDS011;8064;51.142;4.780;2023-03-20T11:50:47;10.10;;;3.80;;
15929;SDS011;8064;51.142;4.780;2023-03-20T11:58:35;10.20;;;4.07;;
15929;SDS011;8064;51.142;4.780;2023-03-20T12:01:11;27.47;;;13.83;;
15929;SDS011;8064;51.142;4.780;2023-03-20T12:06:11;10.90;;;4.33;;
15929;SDS011;8064;51.142;4.780;2023-03-20T12:08:39;11.73;;;3.80;;
15929;SDS011;8064;51.142;4.780;2023-03-20T12:14:03;9.27;;;3.73;;
15929;SDS011;8064;51.142;4.780;2023-03-20T12:16:39;12.20;;;3.50;;
15929;SDS011;8064;51.142;4.780;2023-03-20T12:21:45;13.43;;;2.93;;
15929;SDS011;8064;51.142;4.780;2023-03-20T12:24:25;10.43;;;4.03;;
15929;SDS011;8064;51.142;4.780;2023-03-20T12:35:47;12.60;;;2.80;;
15929;SDS011;8064;51.142;4.780;2023-03-20T12:38:19;9.50;;;2.90;;
15929;SDS011;8064;51.142;4.780;2023-03-20T12:40:52;6.80;;;2.50;;
15929;SDS011;8064;51.142;4.780;2023-03-20T12:43:24;10.83;;;3.17;;
15929;SDS011;8064;51.142;4.780;2023-03-20T12:45:56;9.67;;;2.90;;
15929;SDS011;8064;51.142;4.780;2023-03-20T12:48:38;12.07;;;4.03;;
15929;SDS011;8064;51.142;4.780;2023-03-20T13:02:14;10.17;;;3.07;;
15929;SDS011;8064;51.142;4.780;2023-03-20T13:16:37;9.40;;;2.87;;
15929;SDS011;8064;51.142;4.780;2023-03-20T13:19:27;9.10;;;2.77;;
15929;SDS011;8064;51.142;4.780;2023-03-20T13:22:17;12.97;;;3.10;;
15929;SDS011;8064;51.142;4.780;2023-03-20T13:24:51;7.17;;;2.63;;
15929;SDS011;8064;51.142;4.780;2023-03-20T13:27:33;11.10;;;3.07;;
15929;SDS011;8064;51.142;4.780;2023-03-20T13:41:37;11.30;;;3.00;;
15929;SDS011;8064;51.142;4.780;2023-03-20T13:44:04;13.17;;;3.20;;
15929;SDS011;8064;51.142;4.780;2023-03-20T13:46:46;11.20;;;3.00;;
15929;SDS011;8064;51.142;4.780;2023-03-20T13:52:16;11.13;;;3.60;;
15929;SDS011;8064;51.142;4.780;2023-03-20T13:55:05;8.70;;;3.23;;
15929;SDS011;8064;51.142;4.780;2023-03-20T14:03:29;10.73;;;3.27;;
15929;SDS011;8064;51.142;4.780;2023-03-20T14:05:58;7.07;;;3.67;;
15929;SDS011;8064;51.142;4.780;2023-03-20T14:13:46;12.83;;;3.83;;
15929;SDS011;8064;51.142;4.780;2023-03-20T14:16:18;12.37;;;4.27;;
15929;SDS011;8064;51.142;4.780;2023-03-20T14:18:46;9.87;;;3.87;;
15929;SDS011;8064;51.142;4.780;2023-03-20T14:21:17;11.13;;;4.23;;
15929;SDS011;8064;51.142;4.780;2023-03-20T14:23:56;10.93;;;3.93;;
15929;SDS011;8064;51.142;4.780;2023-03-20T14:26:28;11.33;;;3.90;;
15929;SDS011;8064;51.142;4.780;2023-03-20T14:29:00;9.83;;;3.57;;
15929;SDS011;8064;51.142;4.780;2023-03-20T14:31:47;12.90;;;3.97;;
15929;SDS011;8064;51.142;4.780;2023-03-20T14:34:16;16.53;;;4.17;;
15929;SDS011;8064;51.142;4.780;2023-03-20T14:36:56;11.40;;;3.90;;
15929;SDS011;8064;51.142;4.780;2023-03-20T14:47:53;12.17;;;4.70;;
15929;SDS011;8064;51.142;4.780;2023-03-20T14:50:27;9.00;;;4.57;;
15929;SDS011;8064;51.142;4.780;2023-03-20T15:01:13;12.17;;;3.93;;
15929;SDS011;8064;51.142;4.780;2023-03-20T15:03:41;13.17;;;3.97;;
15929;SDS011;8064;51.142;4.780;2023-03-20T15:06:11;11.27;;;4.07;;
15929;SDS011;8064;51.142;4.780;2023-03-20T15:11:19;13.87;;;4.67;;
15929;SDS011;8064;51.142;4.780;2023-03-20T15:13:46;12.57;;;4.10;;
15929;SDS011;8064;51.142;4.780;2023-03-20T15:16:14;9.43;;;3.93;;
15929;SDS011;8064;51.142;4.780;2023-03-20T15:18:50;13.53;;;4.93;;
15929;SDS011;8064;51.142;4.780;2023-03-20T15:21:19;13.50;;;5.53;;
15929;SDS011;8064;51.142;4.780;2023-03-20T15:23:52;12.53;;;5.20;;
15929;SDS011;8064;51.142;4.780;2023-03-20T15:26:18;14.67;;;5.80;;
15929;SDS011;8064;51.142;4.780;2023-03-20T15:28:46;12.03;;;4.80;;
15929;SDS011;8064;51.142;4.780;2023-03-20T15:31:18;13.53;;;4.70;;
15929;SDS011;8064;51.142;4.780;2023-03-20T15:33:48;12.77;;;4.80;;
15929;SDS011;8064;51.142;4.780;2023-03-20T15:36:15;9.97;;;4.80;;
15929;SDS011;8064;51.142;4.780;2023-03-20T15:38:43;13.93;;;4.67;;
15929;SDS011;8064;51.142;4.780;2023-03-20T15:47:02;14.40;;;5.40;;
15929;SDS011;8064;51.142;4.780;2023-03-20T15:49:36;14.57;;;4.97;;
15929;SDS011;8064;51.142;4.780;2023-03-20T15:52:07;16.57;;;6.20;;
15929;SDS011;8064;51.142;4.780;2023-03-20T15:54:51;12.77;;;5.37;;
15929;SDS011;8064;51.142;4.780;2023-03-20T15:57:20;12.23;;;5.50;;
15929;SDS011;8064;51.142;4.780;2023-03-20T15:59:50;11.93;;;4.97;;
15929;SDS011;8064;51.142;4.780;2023-03-20T16:02:17;13.43;;;5.80;;
15929;SDS011;8064;51.142;4.780;2023-03-20T16:04:45;13.77;;;5.87;;
15929;SDS011;8064;51.142;4.780;2023-03-20T16:09:59;14.33;;;5.40;;
15929;SDS011;8064;51.142;4.780;2023-03-20T16:12:25;10.60;;;5.33;;
15929;SDS011;8064;51.142;4.780;2023-03-20T16:14:51;12.07;;;5.90;;
15929;SDS011;8064;51.142;4.780;2023-03-20T16:17:18;16.80;;;6.00;;
15929;SDS011;8064;51.142;4.780;2023-03-20T16:19:46;10.77;;;5.60;;
15929;SDS011;8064;51.142;4.780;2023-03-20T16:25:08;16.20;;;5.30;;
15929;SDS011;8064;51.142;4.780;2023-03-20T16:27:38;12.07;;;5.07;;
15929;SDS011;8064;51.142;4.780;2023-03-20T16:30:05;12.07;;;4.73;;
15929;SDS011;8064;51.142;4.780;2023-03-20T16:32:39;12.93;;;5.50;;
15929;SDS011;8064;51.142;4.780;2023-03-20T16:35:12;15.53;;;6.00;;
15929;SDS011;8064;51.142;4.780;2023-03-20T16:37:42;17.23;;;5.53;;
15929;SDS011;8064;51.142;4.780;2023-03-20T16:40:19;16.10;;;5.20;;
15929;SDS011;8064;51.142;4.780;2023-03-20T16:42:52;10.93;;;5.20;;
15929;SDS011;8064;51.142;4.780;2023-03-20T16:45:25;13.60;;;5.30;;
15929;SDS011;8064;51.142;4.780;2023-03-20T16:48:21;15.47;;;5.17;;
15929;SDS011;8064;51.142;4.780;2023-03-20T16:50:41;11.23;;;4.47;;
15929;SDS011;8064;51.142;4.780;2023-03-20T16:55:55;14.13;;;4.33;;
15929;SDS011;8064;51.142;4.780;2023-03-20T16:58:25;13.00;;;5.00;;
15929;SDS011;8064;51.142;4.780;2023-03-20T17:09:21;14.17;;;5.57;;
15929;SDS011;8064;51.142;4.780;2023-03-20T17:11:55;13.23;;;5.17;;
15929;SDS011;8064;51.142;4.780;2023-03-20T17:14:25;11.27;;;5.40;;
15929;SDS011;8064;51.142;4.780;2023-03-20T17:16:51;13.60;;;5.30;;
15929;SDS011;8064;51.142;4.780;2023-03-20T17:19:19;11.47;;;5.07;;
15929;SDS011;8064;51.142;4.780;2023-03-20T17:21:45;11.63;;;4.97;;
15929;SDS011;8064;51.142;4.780;2023-03-20T17:24:12;15.07;;;5.20;;
15929;SDS011;8064;51.142;4.780;2023-03-20T17:26:39;13.40;;;5.57;;
15929;SDS011;8064;51.142;4.780;2023-03-20T17:29:08;13.43;;;4.80;;
15929;SDS011;8064;51.142;4.780;2023-03-20T17:31:37;13.97;;;5.40;;
15929;SDS011;8064;51.142;4.780;2023-03-20T17:34:03;12.70;;;4.83;;
15929;SDS011;8064;51.142;4.780;2023-03-20T17:36:30;15.80;;;5.63;;
15929;SDS011;8064;51.142;4.780;2023-03-20T17:38:59;17.70;;;6.00;;
15929;SDS011;8064;51.142;4.780;2023-03-20T17:41:25;9.20;;;4.50;;
15929;SDS011;8064;51.142;4.780;2023-03-20T17:43:52;13.67;;;5.90;;
15929;SDS011;8064;51.142;4.780;2023-03-20T17:46:21;14.50;;;5.23;;
15929;SDS011;8064;51.142;4.780;2023-03-20T17:48:48;13.47;;;4.90;;
15929;SDS011;8064;51.142;4.780;2023-03-20T17:51:15;11.70;;;5.07;;
15929;SDS011;8064;51.142;4.780;2023-03-20T17:53:41;14.10;;;5.67;;
15929;SDS011;8064;51.142;4.780;2023-03-20T17:56:10;14.13;;;5.10;;
15929;SDS011;8064;51.142;4.780;2023-03-20T17:58:36;14.33;;;4.87;;
15929;SDS011;8064;51.142;4.780;2023-03-20T18:01:03;14.77;;;5.83;;
15929;SDS011;8064;51.142;4.780;2023-03-20T18:03:31;13.90;;;6.57;;
15929;SDS011;8064;51.142;4.780;2023-03-20T18:05:57;13.20;;;5.30;;
15929;SDS011;8064;51.142;4.780;2023-03-20T18:08:23;15.90;;;5.83;;
15929;SDS011;8064;51.142;4.780;2023-03-20T18:10:49;9.57;;;5.37;;
15929;SDS011;8064;51.142;4.780;2023-03-20T18:13:26;15.47;;;5.77;;
15929;SDS011;8064;51.142;4.780;2023-03-20T18:15:53;12.87;;;5.47;;